TimeAST,TemperatureF,Dew PointF,Humidity,Sea Level PressureIn,VisibilityMPH,Wind Direction,Wind SpeedMPH,Gust SpeedMPH,PrecipitationIn,Events,Conditions,WindDirDegrees,DateUTC
12:56 AM,77.0,70.0,79,30.04,10.0,Calm,Calm,-,N/A,,Clear,0,2013-04-04 04:56:00
1:56 AM,77.0,69.1,76,30.03,10.0,Calm,Calm,-,N/A,,Partly Cloudy,0,2013-04-04 05:56:00
2:56 AM,75.9,68.0,76,30.02,10.0,Calm,Calm,-,N/A,,Clear,0,2013-04-04 06:56:00
3:56 AM,75.0,69.1,82,30.02,10.0,Calm,Calm,-,N/A,,Partly Cloudy,0,2013-04-04 07:56:00
4:56 AM,75.0,69.1,82,30.03,10.0,Calm,Calm,-,N/A,,Partly Cloudy,0,2013-04-04 08:56:00
5:56 AM,75.0,69.1,82,30.04,10.0,Calm,Calm,-,N/A,,Partly Cloudy,0,2013-04-04 09:56:00
6:56 AM,75.9,69.1,79,30.06,10.0,Calm,Calm,-,N/A,,Scattered Clouds,0,2013-04-04 10:56:00
7:56 AM,79.0,71.1,77,30.08,10.0,Variable,6.9,-,N/A,,Scattered Clouds,0,2013-04-04 11:56:00
8:56 AM,82.9,71.1,67,30.09,10.0,East,10.4,-,N/A,,Scattered Clouds,90,2013-04-04 12:56:00
9:56 AM,84.9,71.1,63,30.10,10.0,ENE,13.8,19.6,N/A,,Scattered Clouds,70,2013-04-04 13:56:00
10:56 AM,87.1,71.1,59,30.09,10.0,ENE,16.1,-,N/A,,Scattered Clouds,60,2013-04-04 14:56:00
11:56 AM,87.1,71.1,59,30.08,10.0,ENE,20.7,26.5,N/A,,Scattered Clouds,60,2013-04-04 15:56:00
12:56 PM,87.1,71.1,59,30.06,10.0,ENE,20.7,-,N/A,,Scattered Clouds,70,2013-04-04 16:56:00
1:56 PM,86.0,72.0,63,30.04,10.0,ENE,19.6,32.2,N/A,,Scattered Clouds,60,2013-04-04 17:56:00
2:56 PM,84.9,71.1,63,30.02,10.0,ENE,21.9,28.8,N/A,,Scattered Clouds,60,2013-04-04 18:56:00
3:56 PM,84.9,71.1,63,30.01,10.0,ENE,17.3,26.5,N/A,,Partly Cloudy,70,2013-04-04 19:56:00
4:56 PM,82.9,70.0,65,30.01,10.0,East,16.1,-,N/A,,Scattered Clouds,80,2013-04-04 20:56:00
5:56 PM,81.0,70.0,69,30.01,10.0,East,19.6,-,N/A,,Partly Cloudy,80,2013-04-04 21:56:00
6:56 PM,79.0,69.1,72,30.03,10.0,East,16.1,-,N/A,,Partly Cloudy,90,2013-04-04 22:56:00
7:56 PM,78.1,68.0,71,30.04,10.0,East,13.8,-,N/A,,Partly Cloudy,80,2013-04-04 23:56:00
8:56 PM,78.1,70.0,76,30.06,10.0,East,9.2,-,N/A,,Partly Cloudy,90,2013-04-05 00:56:00
9:56 PM,77.0,70.0,79,30.07,10.0,East,10.4,-,N/A,,Partly Cloudy,80,2013-04-05 01:56:00
10:56 PM,77.0,68.0,74,30.07,10.0,East,9.2,-,N/A,,Partly Cloudy,90,2013-04-05 02:56:00
11:56 PM,77.0,68.0,74,30.07,10.0,East,4.6,-,0.01,,Partly Cloudy,100,2013-04-05 03:56:00